910 KSZL-KSZL
Flight info
| Callsign | 910 |
|---|---|
| Flight time | N/A |
| Altitude | 49000 |
| Route | DRIVL SAAGS BULET COLIE LOAMY KEOKK JOT GIJ BENJO CFHFC JHW AUDIL PUPPY PAYGE ENE AJJAY ALLEX/M090F490 RAFIN 4550N 4440N 4230N LENSI KOMUT/N0513F490 MARUM BEXAL KORNO GONZA ELKIS LACAN NOGAH BUSRA MUTAG OIIE MUTAG BUSRA NOGAH LACAN ELKIS GONZA KORNO BEXAL MARUM KOMUT/M090F490 LENSI 4230N 4440N 4550N RAFIN/N0518F490 ALLEX AJJAY ENE PAYGE PUPPY AUDIL JHW CFHFC BENJO GIJ JOT KEOKK LOAMY COLIE BULET SAAGS DRIVL |
| Aircraft | B2ST/H-SDE3FGHIM1M2RWXY/LB1 |
Departure
| Time | 2026-04-25 18:48 |
|---|---|
| Airport | Whiteman Air Force Base (KSZL) |
Arrival
| Time | N/A |
|---|---|
| Airport | Whiteman Air Force Base (KSZL) |
| Time | Latitude | Longitude | Altitude | Speed | Heading |
|---|---|---|---|---|---|
| 2026-04-25 18:32 | 38.73230 | -93.55769 | 833 ft | 0 kts | 92° |
| 2026-04-25 18:40 | 38.73230 | -93.55767 | 844 ft | 0 kts | 92° |
| 2026-04-25 18:41 | 38.73230 | -93.55761 | 834 ft | 2 kts | 92° |
| 2026-04-25 18:41 | 38.73228 | -93.55716 | 837 ft | 8 kts | 92° |
| 2026-04-25 18:41 | 38.73226 | -93.55631 | 838 ft | 10 kts | 88° |
| 2026-04-25 18:41 | 38.73287 | -93.55603 | 840 ft | 12 kts | 1° |
| 2026-04-25 18:42 | 38.73392 | -93.55597 | 837 ft | 18 kts | 4° |
| 2026-04-25 18:42 | 38.73482 | -93.55590 | 841 ft | 21 kts | 3° |
| 2026-04-25 18:42 | 38.73701 | -93.55575 | 843 ft | 24 kts | 2° |
| 2026-04-25 18:42 | 38.73833 | -93.55568 | 844 ft | 10 kts | 14° |
| 2026-04-25 18:43 | 38.73874 | -93.55540 | 839 ft | 4 kts | 45° |
| 2026-04-25 18:43 | 38.73881 | -93.55531 | 840 ft | 0 kts | 45° |
| 2026-04-25 18:43 | 38.73883 | -93.55529 | 840 ft | 2 kts | 44° |
| 2026-04-25 18:43 | 38.73911 | -93.55498 | 839 ft | 9 kts | 39° |
| 2026-04-25 18:44 | 38.73974 | -93.55434 | 838 ft | 14 kts | 39° |
| 2026-04-25 18:44 | 38.74053 | -93.55351 | 842 ft | 16 kts | 39° |
| 2026-04-25 18:44 | 38.74144 | -93.55259 | 846 ft | 18 kts | 38° |
| 2026-04-25 18:44 | 38.74244 | -93.55154 | 843 ft | 19 kts | 39° |
| 2026-04-25 18:45 | 38.74352 | -93.55040 | 841 ft | 21 kts | 39° |
| 2026-04-25 18:45 | 38.74469 | -93.54916 | 842 ft | 22 kts | 40° |
| 2026-04-25 18:45 | 38.74592 | -93.54787 | 845 ft | 24 kts | 39° |
| 2026-04-25 18:45 | 38.74721 | -93.54654 | 848 ft | 15 kts | 46° |
| 2026-04-25 18:46 | 38.74721 | -93.54573 | 857 ft | 6 kts | 102° |
| 2026-04-25 18:46 | 38.74716 | -93.54541 | 857 ft | 2 kts | 102° |
| 2026-04-25 18:46 | 38.74709 | -93.54500 | 851 ft | 9 kts | 101° |
| 2026-04-25 18:46 | 38.74690 | -93.54409 | 849 ft | 11 kts | 123° |
| 2026-04-25 18:47 | 38.74627 | -93.54392 | 852 ft | 10 kts | 204° |
| 2026-04-25 18:47 | 38.74523 | -93.54420 | 853 ft | 35 kts | 190° |
| 2026-04-25 18:47 | 38.74061 | -93.54536 | 846 ft | 100 kts | 191° |
| 2026-04-25 18:47 | 38.73174 | -93.54755 | 839 ft | 157 kts | 191° |
| 2026-04-25 18:48 | 38.71974 | -93.55063 | 1150 ft | 189 kts | 189° |
| 2026-04-25 18:48 | 38.70598 | -93.55401 | 1835 ft | 219 kts | 186° |
| 2026-04-25 18:48 | 38.69000 | -93.55642 | 2669 ft | 243 kts | 175° |
| 2026-04-25 18:48 | 38.67327 | -93.55191 | 3518 ft | 239 kts | 154° |
| 2026-04-25 18:49 | 38.66050 | -93.53964 | 3731 ft | 230 kts | 129° |
| 2026-04-25 18:49 | 38.65371 | -93.52113 | 3859 ft | 223 kts | 102° |
| 2026-04-25 18:49 | 38.65381 | -93.50266 | 4468 ft | 199 kts | 80° |
| 2026-04-25 18:49 | 38.66031 | -93.48626 | 4835 ft | 220 kts | 55° |
| 2026-04-25 18:50 | 38.67236 | -93.47185 | 5005 ft | 252 kts | 42° |
| 2026-04-25 18:50 | 38.68870 | -93.46100 | 5206 ft | 284 kts | 21° |
| 2026-04-25 18:50 | 38.70957 | -93.45894 | 5190 ft | 322 kts | 355° |
| 2026-04-25 18:50 | 38.73108 | -93.46894 | 5595 ft | 337 kts | 329° |
| 2026-04-25 18:51 | 38.75039 | -93.48679 | 6128 ft | 347 kts | 317° |
| 2026-04-25 18:51 | 38.76267 | -93.50026 | 6445 ft | 353 kts | 313° |
| 2026-04-25 18:51 | 38.78949 | -93.52554 | 6893 ft | 363 kts | 324° |
| 2026-04-25 18:51 | 38.81280 | -93.53890 | 7257 ft | 370 kts | 336° |
| 2026-04-25 18:52 | 38.83768 | -93.54831 | 7697 ft | 376 kts | 343° |
| 2026-04-25 18:52 | 38.86338 | -93.55574 | 8189 ft | 382 kts | 348° |
| 2026-04-25 18:52 | 38.88965 | -93.55904 | 8659 ft | 387 kts | 358° |
| 2026-04-25 18:52 | 38.91671 | -93.55898 | 9182 ft | 391 kts | 3° |
| 2026-04-25 18:53 | 38.94403 | -93.55899 | 9669 ft | 394 kts | 2° |
| 2026-04-25 18:53 | 38.97158 | -93.56004 | 10129 ft | 396 kts | 0° |
| 2026-04-25 18:53 | 38.99888 | -93.56153 | 10593 ft | 399 kts | 358° |
| 2026-04-25 18:53 | 39.02665 | -93.56428 | 11092 ft | 401 kts | 358° |
| 2026-04-25 18:54 | 39.08268 | -93.56879 | 12124 ft | 404 kts | 358° |
| 2026-04-25 18:54 | 39.11075 | -93.57047 | 12637 ft | 405 kts | 357° |
| 2026-04-25 18:54 | 39.13893 | -93.57218 | 13172 ft | 405 kts | 357° |
| 2026-04-25 18:55 | 39.16722 | -93.57380 | 13699 ft | 407 kts | 358° |
| 2026-04-25 18:55 | 39.19630 | -93.57327 | 14180 ft | 428 kts | 3° |
| 2026-04-25 18:55 | 39.22382 | -93.56513 | 14610 ft | 395 kts | 22° |
| 2026-04-25 18:55 | 39.24615 | -93.54641 | 15071 ft | 400 kts | 43° |
| 2026-04-25 18:56 | 39.26520 | -93.52032 | 15588 ft | 403 kts | 52° |
| 2026-04-25 18:56 | 39.28317 | -93.49244 | 16094 ft | 404 kts | 53° |
| 2026-04-25 18:56 | 39.30136 | -93.46494 | 16594 ft | 409 kts | 50° |
| 2026-04-25 18:56 | 39.31934 | -93.43960 | 17088 ft | 413 kts | 47° |
| 2026-04-25 18:57 | 39.34073 | -93.41462 | 17606 ft | 414 kts | 38° |
| 2026-04-25 18:57 | 39.36432 | -93.39262 | 18151 ft | 419 kts | 32° |
| 2026-04-25 18:57 | 39.38784 | -93.37000 | 18593 ft | 425 kts | 35° |
| 2026-04-25 18:57 | 39.39564 | -93.36192 | 18744 ft | 424 kts | 36° |
| 2026-04-25 18:58 | 39.43368 | -93.32103 | 19554 ft | 429 kts | 38° |
| 2026-04-25 18:58 | 39.48121 | -93.27252 | 20570 ft | 440 kts | 37° |
| 2026-04-25 18:58 | 39.50509 | -93.24775 | 21064 ft | 442 kts | 37° |
| 2026-04-25 18:59 | 39.55381 | -93.19755 | 22143 ft | 451 kts | 36° |
| 2026-04-25 18:59 | 39.60349 | -93.14601 | 23240 ft | 461 kts | 36° |
| 2026-04-25 19:00 | 39.65371 | -93.09393 | 24214 ft | 468 kts | 36° |
| 2026-04-25 19:00 | 39.67925 | -93.06738 | 24605 ft | 473 kts | 36° |
| 2026-04-25 19:01 | 39.72912 | -93.01549 | 24890 ft | 472 kts | 36° |
| 2026-04-25 19:01 | 39.75482 | -92.98866 | 24936 ft | 474 kts | 36° |
| 2026-04-25 19:01 | 39.78053 | -92.96185 | 24955 ft | 473 kts | 36° |
| 2026-04-25 19:01 | 39.80617 | -92.93508 | 24962 ft | 473 kts | 36° |
| 2026-04-25 19:02 | 39.85752 | -92.88135 | 24983 ft | 473 kts | 36° |
| 2026-04-25 19:02 | 39.88312 | -92.85454 | 24980 ft | 473 kts | 36° |
| 2026-04-25 19:02 | 39.90879 | -92.82761 | 24981 ft | 473 kts | 36° |
| 2026-04-25 19:03 | 39.94307 | -92.79162 | 24981 ft | 473 kts | 37° |
| 2026-04-25 19:03 | 39.98570 | -92.74681 | 24986 ft | 473 kts | 37° |
| 2026-04-25 19:03 | 40.01129 | -92.71988 | 25007 ft | 473 kts | 37° |
| 2026-04-25 19:04 | 40.06243 | -92.66593 | 24982 ft | 471 kts | 37° |
| 2026-04-25 19:04 | 40.08795 | -92.63902 | 24980 ft | 471 kts | 37° |
| 2026-04-25 19:05 | 40.13973 | -92.58666 | 24976 ft | 472 kts | 37° |
| 2026-04-25 19:05 | 40.17528 | -92.51746 | 24975 ft | 477 kts | 69° |
| 2026-04-25 19:05 | 40.18607 | -92.47632 | 24984 ft | 479 kts | 73° |
| 2026-04-25 19:06 | 40.19568 | -92.43519 | 24989 ft | 479 kts | 73° |
| 2026-04-25 19:06 | 40.21819 | -92.35342 | 24984 ft | 477 kts | 62° |
| 2026-04-25 19:06 | 40.23376 | -92.31515 | 25001 ft | 477 kts | 59° |
| 2026-04-25 19:07 | 40.26138 | -92.23625 | 24995 ft | 474 kts | 65° |
| 2026-04-25 19:07 | 40.27568 | -92.19733 | 24998 ft | 475 kts | 63° |
| 2026-04-25 19:08 | 40.30399 | -92.11912 | 24998 ft | 474 kts | 63° |
| 2026-04-25 19:08 | 40.31824 | -92.08008 | 24996 ft | 475 kts | 63° |
| 2026-04-25 19:09 | 40.36043 | -91.96305 | 24997 ft | 475 kts | 63° |
| 2026-04-25 19:09 | 40.36523 | -91.94972 | 24999 ft | 475 kts | 64° |
| 2026-04-25 19:09 | 40.40260 | -91.84566 | 24998 ft | 470 kts | 64° |
| 2026-04-25 19:10 | 40.41652 | -91.80681 | 24996 ft | 472 kts | 64° |
| 2026-04-25 19:10 | 40.42576 | -91.78099 | 24994 ft | 472 kts | 64° |
| 2026-04-25 19:10 | 40.43922 | -91.74170 | 24995 ft | 471 kts | 65° |
| 2026-04-25 19:10 | 40.45687 | -91.68898 | 24999 ft | 472 kts | 64° |
| 2026-04-25 19:11 | 40.46588 | -91.66294 | 25004 ft | 472 kts | 64° |
| 2026-04-25 19:11 | 40.47921 | -91.62363 | 25002 ft | 471 kts | 65° |
| 2026-04-25 19:11 | 40.49246 | -91.58418 | 25003 ft | 472 kts | 65° |
| 2026-04-25 19:11 | 40.50584 | -91.54483 | 24997 ft | 472 kts | 65° |
| 2026-04-25 19:12 | 40.51917 | -91.50539 | 24995 ft | 471 kts | 65° |
| 2026-04-25 19:12 | 40.53241 | -91.46599 | 24993 ft | 471 kts | 65° |
| 2026-04-25 19:12 | 40.54568 | -91.42663 | 24995 ft | 472 kts | 65° |
| 2026-04-25 19:12 | 40.55893 | -91.38723 | 24994 ft | 470 kts | 65° |
| 2026-04-25 19:13 | 40.57236 | -91.34782 | 24995 ft | 471 kts | 65° |
| 2026-04-25 19:13 | 40.58576 | -91.30855 | 24999 ft | 471 kts | 65° |
| 2026-04-25 19:13 | 40.59885 | -91.26971 | 24996 ft | 471 kts | 65° |
| 2026-04-25 19:13 | 40.61219 | -91.23029 | 24992 ft | 471 kts | 65° |
| 2026-04-25 19:14 | 40.62556 | -91.19082 | 24998 ft | 471 kts | 65° |
| 2026-04-25 19:14 | 40.63435 | -91.16474 | 24997 ft | 471 kts | 65° |
| 2026-04-25 19:14 | 40.65216 | -91.11188 | 24996 ft | 471 kts | 65° |
| 2026-04-25 19:14 | 40.66541 | -91.07250 | 24996 ft | 471 kts | 65° |
| 2026-04-25 19:15 | 40.67867 | -91.03302 | 25005 ft | 470 kts | 65° |
| 2026-04-25 19:15 | 40.69193 | -90.99350 | 25002 ft | 472 kts | 65° |
| 2026-04-25 19:15 | 40.70519 | -90.95393 | 25003 ft | 471 kts | 65° |
| 2026-04-25 19:15 | 40.71840 | -90.91445 | 25021 ft | 471 kts | 65° |
| 2026-04-25 19:16 | 40.73160 | -90.87492 | 25017 ft | 471 kts | 65° |
| 2026-04-25 19:16 | 40.74478 | -90.83542 | 25016 ft | 471 kts | 65° |
| 2026-04-25 19:16 | 40.75796 | -90.79586 | 25014 ft | 471 kts | 65° |
| 2026-04-25 19:16 | 40.77115 | -90.75620 | 25014 ft | 471 kts | 65° |
| 2026-04-25 19:17 | 40.78430 | -90.71661 | 25015 ft | 470 kts | 65° |
| 2026-04-25 19:17 | 40.79742 | -90.67704 | 25020 ft | 471 kts | 65° |
| 2026-04-25 19:17 | 40.81054 | -90.63746 | 25023 ft | 471 kts | 66° |
| 2026-04-25 19:17 | 40.82364 | -90.59786 | 25028 ft | 471 kts | 66° |
| 2026-04-25 19:18 | 40.83657 | -90.55870 | 25032 ft | 471 kts | 66° |
| 2026-04-25 19:18 | 40.84963 | -90.51909 | 25030 ft | 471 kts | 66° |
| 2026-04-25 19:18 | 40.86269 | -90.47945 | 25031 ft | 471 kts | 66° |
| 2026-04-25 19:18 | 40.87573 | -90.43981 | 25033 ft | 471 kts | 66° |
| 2026-04-25 19:19 | 40.88878 | -90.40006 | 25033 ft | 471 kts | 66° |
| 2026-04-25 19:19 | 40.90177 | -90.36043 | 25034 ft | 470 kts | 66° |
| 2026-04-25 19:19 | 40.91475 | -90.32079 | 25042 ft | 469 kts | 66° |
| 2026-04-25 19:19 | 40.92334 | -90.29455 | 25038 ft | 470 kts | 66° |
| 2026-04-25 19:20 | 40.94068 | -90.24145 | 25029 ft | 469 kts | 66° |
| 2026-04-25 19:20 | 40.95361 | -90.20181 | 25028 ft | 469 kts | 66° |
| 2026-04-25 19:20 | 40.96652 | -90.16214 | 25030 ft | 470 kts | 66° |
| 2026-04-25 19:20 | 40.97943 | -90.12243 | 25025 ft | 469 kts | 66° |
| 2026-04-25 19:21 | 40.99234 | -90.08267 | 25025 ft | 470 kts | 66° |
| 2026-04-25 19:21 | 41.01791 | -90.00373 | 25026 ft | 469 kts | 66° |
| 2026-04-25 19:21 | 41.03093 | -89.96345 | 25028 ft | 469 kts | 66° |
| 2026-04-25 19:22 | 41.04356 | -89.92431 | 25029 ft | 469 kts | 66° |
| 2026-04-25 19:22 | 41.05639 | -89.88453 | 25028 ft | 468 kts | 66° |
| 2026-04-25 19:22 | 41.08195 | -89.80502 | 25031 ft | 469 kts | 66° |
| 2026-04-25 19:23 | 41.09473 | -89.76522 | 25031 ft | 468 kts | 66° |
| 2026-04-25 19:23 | 41.12024 | -89.68553 | 25036 ft | 469 kts | 66° |
| 2026-04-25 19:23 | 41.13297 | -89.64569 | 25040 ft | 469 kts | 66° |
| 2026-04-25 19:24 | 41.14568 | -89.60586 | 25038 ft | 469 kts | 66° |
| 2026-04-25 19:24 | 41.15835 | -89.56607 | 25038 ft | 468 kts | 66° |
| 2026-04-25 19:24 | 41.18357 | -89.48674 | 25041 ft | 469 kts | 66° |
| 2026-04-25 19:25 | 41.20887 | -89.40690 | 25040 ft | 469 kts | 66° |
| 2026-04-25 19:25 | 41.22148 | -89.36700 | 25043 ft | 469 kts | 66° |
| 2026-04-25 19:25 | 41.23410 | -89.32704 | 25042 ft | 469 kts | 66° |
| 2026-04-25 19:26 | 41.24672 | -89.28705 | 25042 ft | 469 kts | 66° |
| 2026-04-25 19:26 | 41.25927 | -89.24714 | 25039 ft | 469 kts | 66° |
| 2026-04-25 19:26 | 41.27183 | -89.20715 | 25043 ft | 468 kts | 66° |
| 2026-04-25 19:26 | 41.28437 | -89.16726 | 25042 ft | 467 kts | 66° |
| 2026-04-25 19:27 | 41.29691 | -89.12728 | 25039 ft | 468 kts | 66° |
| 2026-04-25 19:27 | 41.30520 | -89.10078 | 25038 ft | 468 kts | 66° |
| 2026-04-25 19:27 | 41.32190 | -89.04733 | 25040 ft | 468 kts | 66° |
| 2026-04-25 19:27 | 41.33436 | -89.00740 | 25038 ft | 468 kts | 66° |
| 2026-04-25 19:28 | 41.34684 | -88.96736 | 25045 ft | 468 kts | 66° |
| 2026-04-25 19:28 | 41.35928 | -88.92736 | 25042 ft | 469 kts | 66° |
| 2026-04-25 19:28 | 41.37172 | -88.88729 | 25039 ft | 468 kts | 66° |
| 2026-04-25 19:28 | 41.38415 | -88.84724 | 25038 ft | 468 kts | 66° |
| 2026-04-25 19:29 | 41.39637 | -88.80771 | 25041 ft | 467 kts | 66° |
| 2026-04-25 19:29 | 41.40876 | -88.76773 | 25037 ft | 467 kts | 66° |
| 2026-04-25 19:29 | 41.42115 | -88.72758 | 25037 ft | 467 kts | 66° |
| 2026-04-25 19:29 | 41.43347 | -88.68758 | 25040 ft | 468 kts | 66° |
| 2026-04-25 19:30 | 41.44583 | -88.64745 | 25039 ft | 467 kts | 66° |
| 2026-04-25 19:30 | 41.45814 | -88.60741 | 25038 ft | 467 kts | 66° |
| 2026-04-25 19:30 | 41.47044 | -88.56731 | 25041 ft | 467 kts | 66° |
| 2026-04-25 19:30 | 41.48274 | -88.52721 | 25043 ft | 467 kts | 66° |
| 2026-04-25 19:31 | 41.49501 | -88.48708 | 25045 ft | 468 kts | 66° |
| 2026-04-25 19:31 | 41.50729 | -88.44688 | 25043 ft | 467 kts | 66° |
| 2026-04-25 19:31 | 41.51951 | -88.40685 | 25047 ft | 466 kts | 66° |
| 2026-04-25 19:31 | 41.53175 | -88.36669 | 25048 ft | 467 kts | 66° |
| 2026-04-25 19:32 | 41.54408 | -88.32660 | 25048 ft | 466 kts | 65° |
| 2026-04-25 19:32 | 41.55566 | -88.28614 | 25026 ft | 468 kts | 72° |
| 2026-04-25 19:32 | 41.56128 | -88.24336 | 25034 ft | 469 kts | 82° |
| 2026-04-25 19:32 | 41.56351 | -88.21461 | 25044 ft | 469 kts | 85° |
| 2026-04-25 19:33 | 41.56631 | -88.15689 | 25052 ft | 471 kts | 86° |
| 2026-04-25 19:33 | 41.56989 | -88.11355 | 25050 ft | 468 kts | 79° |
| 2026-04-25 19:33 | 41.57615 | -88.07080 | 25052 ft | 470 kts | 76° |
| 2026-04-25 19:33 | 41.58136 | -88.02770 | 25049 ft | 469 kts | 81° |
| 2026-04-25 19:34 | 41.58573 | -87.98453 | 25056 ft | 471 kts | 81° |
| 2026-04-25 19:34 | 41.59101 | -87.94140 | 25061 ft | 468 kts | 79° |
| 2026-04-25 19:34 | 41.59622 | -87.89829 | 25058 ft | 471 kts | 80° |
| 2026-04-25 19:34 | 41.60105 | -87.85514 | 25059 ft | 468 kts | 80° |
| 2026-04-25 19:35 | 41.60607 | -87.81210 | 25071 ft | 471 kts | 79° |
| 2026-04-25 19:35 | 41.61113 | -87.76895 | 25072 ft | 468 kts | 80° |
| 2026-04-25 19:35 | 41.61601 | -87.72584 | 25089 ft | 470 kts | 80° |
| 2026-04-25 19:35 | 41.62097 | -87.68269 | 25094 ft | 468 kts | 80° |
| 2026-04-25 19:36 | 41.62590 | -87.63966 | 25093 ft | 470 kts | 80° |
| 2026-04-25 19:36 | 41.63079 | -87.59663 | 25094 ft | 467 kts | 80° |
| 2026-04-25 19:36 | 41.63568 | -87.55343 | 25098 ft | 470 kts | 80° |
| 2026-04-25 19:36 | 41.64055 | -87.51047 | 25088 ft | 467 kts | 80° |
| 2026-04-25 19:37 | 41.64540 | -87.46729 | 25092 ft | 470 kts | 80° |
| 2026-04-25 19:37 | 41.65024 | -87.42426 | 25087 ft | 467 kts | 80° |
| 2026-04-25 19:37 | 41.65506 | -87.38112 | 25088 ft | 469 kts | 80° |
| 2026-04-25 19:37 | 41.65982 | -87.33846 | 25094 ft | 468 kts | 80° |
| 2026-04-25 19:38 | 41.66461 | -87.29527 | 25087 ft | 469 kts | 80° |
| 2026-04-25 19:38 | 41.66937 | -87.25228 | 25085 ft | 467 kts | 80° |
| 2026-04-25 19:38 | 41.67413 | -87.20911 | 25084 ft | 469 kts | 80° |
| 2026-04-25 19:38 | 41.67885 | -87.16616 | 25084 ft | 467 kts | 80° |
| 2026-04-25 19:39 | 41.68359 | -87.12295 | 25091 ft | 468 kts | 80° |
| 2026-04-25 19:39 | 41.68828 | -87.07999 | 25089 ft | 467 kts | 80° |
| 2026-04-25 19:39 | 41.69297 | -87.03684 | 25096 ft | 468 kts | 81° |
| 2026-04-25 19:39 | 41.69764 | -86.99373 | 25088 ft | 467 kts | 80° |
| 2026-04-25 19:40 | 41.70230 | -86.95057 | 25099 ft | 468 kts | 81° |
| 2026-04-25 19:40 | 41.70692 | -86.90753 | 25099 ft | 466 kts | 80° |
| 2026-04-25 19:40 | 41.71154 | -86.86448 | 25098 ft | 467 kts | 81° |
| 2026-04-25 19:40 | 41.71613 | -86.82150 | 25102 ft | 466 kts | 80° |
| 2026-04-25 19:41 | 41.72071 | -86.77845 | 25095 ft | 467 kts | 81° |
| 2026-04-25 19:41 | 41.72521 | -86.73607 | 25097 ft | 466 kts | 80° |
| 2026-04-25 19:41 | 41.72976 | -86.69297 | 25093 ft | 467 kts | 81° |
| 2026-04-25 19:41 | 41.73130 | -86.67843 | 25089 ft | 466 kts | 81° |
| 2026-04-25 19:42 | 41.73882 | -86.60669 | 25076 ft | 468 kts | 81° |
| 2026-04-25 19:42 | 41.74331 | -86.56369 | 25042 ft | 467 kts | 81° |
| 2026-04-25 19:42 | 41.74781 | -86.52054 | 25041 ft | 466 kts | 81° |
| 2026-04-25 19:42 | 41.75224 | -86.47775 | 25031 ft | 464 kts | 81° |
| 2026-04-25 19:43 | 41.75668 | -86.43478 | 25031 ft | 466 kts | 81° |
| 2026-04-25 19:43 | 41.76110 | -86.39180 | 25030 ft | 464 kts | 81° |
| 2026-04-25 19:43 | 41.76552 | -86.34876 | 25032 ft | 466 kts | 81° |
| 2026-04-25 19:43 | 41.76990 | -86.30588 | 25030 ft | 464 kts | 81° |
| 2026-04-25 19:44 | 41.77469 | -86.26300 | 25036 ft | 466 kts | 79° |
| 2026-04-25 19:44 | 41.77954 | -86.22018 | 24993 ft | 464 kts | 80° |
| 2026-04-25 19:44 | 41.78411 | -86.17717 | 24999 ft | 466 kts | 81° |
| 2026-04-25 19:44 | 41.78873 | -86.13492 | 24999 ft | 463 kts | 80° |
| 2026-04-25 19:45 | 41.79343 | -86.09223 | 24997 ft | 464 kts | 80° |
| 2026-04-25 19:45 | 41.79803 | -86.04945 | 24997 ft | 464 kts | 80° |
| 2026-04-25 19:45 | 41.80264 | -86.00661 | 24995 ft | 464 kts | 80° |
| 2026-04-25 19:45 | 41.80726 | -85.96382 | 24994 ft | 464 kts | 80° |
| 2026-04-25 19:46 | 41.81185 | -85.92097 | 24994 ft | 464 kts | 81° |
| 2026-04-25 19:46 | 41.81641 | -85.87817 | 24991 ft | 463 kts | 80° |
| 2026-04-25 19:46 | 41.82097 | -85.83532 | 24992 ft | 464 kts | 81° |
| 2026-04-25 19:46 | 41.82551 | -85.79253 | 24989 ft | 464 kts | 81° |
| 2026-04-25 19:47 | 41.83004 | -85.74962 | 24997 ft | 464 kts | 81° |
| 2026-04-25 19:47 | 41.83454 | -85.70686 | 24999 ft | 464 kts | 81° |
| 2026-04-25 19:47 | 41.83903 | -85.66404 | 25001 ft | 464 kts | 81° |
| 2026-04-25 19:47 | 41.84350 | -85.62115 | 25002 ft | 464 kts | 81° |
| 2026-04-25 19:48 | 41.84795 | -85.57840 | 25010 ft | 464 kts | 81° |
| 2026-04-25 19:48 | 41.85239 | -85.53557 | 25014 ft | 464 kts | 81° |
| 2026-04-25 19:48 | 41.85682 | -85.49273 | 25014 ft | 464 kts | 81° |
| 2026-04-25 19:48 | 41.86124 | -85.44979 | 25014 ft | 464 kts | 81° |
| 2026-04-25 19:49 | 41.86563 | -85.40689 | 25016 ft | 464 kts | 81° |
| 2026-04-25 19:49 | 41.86705 | -85.39302 | 25015 ft | 464 kts | 81° |
| 2026-04-25 19:49 | 41.87437 | -85.32119 | 25013 ft | 464 kts | 81° |
| 2026-04-25 19:49 | 41.87866 | -85.27889 | 25012 ft | 463 kts | 81° |
| 2026-04-25 19:50 | 41.88729 | -85.19313 | 25027 ft | 464 kts | 81° |
| 2026-04-25 19:50 | 41.89132 | -85.15014 | 25026 ft | 465 kts | 82° |
| 2026-04-25 19:50 | 41.89533 | -85.10702 | 25024 ft | 465 kts | 81° |
| 2026-04-25 19:51 | 41.89945 | -85.06402 | 25023 ft | 464 kts | 81° |
| 2026-04-25 19:51 | 41.90348 | -85.02104 | 25156 ft | 462 kts | 81° |
| 2026-04-25 19:51 | 41.90748 | -84.97803 | 25432 ft | 463 kts | 81° |
| 2026-04-25 19:51 | 41.91146 | -84.93564 | 25800 ft | 464 kts | 81° |
| 2026-04-25 19:52 | 41.91253 | -84.92415 | 25899 ft | 465 kts | 81° |
| 2026-04-25 19:52 | 41.91649 | -84.88120 | 26270 ft | 463 kts | 81° |
| 2026-04-25 19:52 | 41.92045 | -84.83810 | 26653 ft | 466 kts | 81° |
| 2026-04-25 19:52 | 41.92443 | -84.79499 | 27039 ft | 465 kts | 81° |
| 2026-04-25 19:53 | 41.92839 | -84.75174 | 27430 ft | 467 kts | 81° |
| 2026-04-25 19:53 | 41.93233 | -84.70846 | 27830 ft | 466 kts | 81° |
| 2026-04-25 19:53 | 41.93626 | -84.66514 | 28243 ft | 468 kts | 82° |
| 2026-04-25 19:53 | 41.94020 | -84.62168 | 28653 ft | 469 kts | 82° |
| 2026-04-25 19:54 | 41.94405 | -84.57870 | 29065 ft | 470 kts | 82° |
| 2026-04-25 19:54 | 41.94795 | -84.53519 | 29487 ft | 469 kts | 82° |
| 2026-04-25 19:54 | 41.95185 | -84.49150 | 29916 ft | 472 kts | 82° |
| 2026-04-25 19:54 | 41.95317 | -84.47667 | 30058 ft | 472 kts | 82° |
| 2026-04-25 19:55 | 41.95959 | -84.40410 | 30665 ft | 471 kts | 82° |
| 2026-04-25 19:55 | 41.96344 | -84.36043 | 31034 ft | 470 kts | 82° |
| 2026-04-25 19:55 | 41.96726 | -84.31685 | 31412 ft | 468 kts | 82° |
| 2026-04-25 19:55 | 41.97105 | -84.27343 | 31795 ft | 469 kts | 82° |
| 2026-04-25 19:56 | 41.97485 | -84.22972 | 32190 ft | 470 kts | 83° |
| 2026-04-25 19:56 | 41.97859 | -84.18619 | 32577 ft | 467 kts | 83° |
| 2026-04-25 19:56 | 41.98107 | -84.15743 | 32847 ft | 467 kts | 83° |
| 2026-04-25 19:56 | 41.98607 | -84.09934 | 33371 ft | 467 kts | 83° |
| 2026-04-25 19:57 | 41.98851 | -84.07072 | 33643 ft | 465 kts | 83° |
| 2026-04-25 19:57 | 41.99218 | -84.02752 | 34049 ft | 466 kts | 83° |
| 2026-04-25 19:57 | 41.99584 | -83.98429 | 34404 ft | 466 kts | 83° |
| 2026-04-25 19:57 | 41.99949 | -83.94100 | 34761 ft | 465 kts | 84° |
| 2026-04-25 19:58 | 42.00408 | -83.88621 | 35212 ft | 469 kts | 84° |
| 2026-04-25 19:58 | 42.00640 | -83.85916 | 35433 ft | 474 kts | 84° |
| 2026-04-25 19:58 | 42.01000 | -83.81468 | 35804 ft | 482 kts | 84° |
| 2026-04-25 19:59 | 42.01373 | -83.76953 | 36183 ft | 489 kts | 84° |
| 2026-04-25 19:59 | 42.01756 | -83.72383 | 36557 ft | 495 kts | 84° |
| 2026-04-25 19:59 | 42.02133 | -83.67739 | 36806 ft | 499 kts | 84° |
| 2026-04-25 19:59 | 42.02509 | -83.63119 | 36923 ft | 496 kts | 84° |
| 2026-04-25 20:00 | 42.02885 | -83.58513 | 36960 ft | 496 kts | 84° |
| 2026-04-25 20:00 | 42.03628 | -83.49265 | 36987 ft | 496 kts | 84° |
| 2026-04-25 20:01 | 42.04710 | -83.35654 | 37011 ft | 496 kts | 85° |
| 2026-04-25 20:01 | 42.05433 | -83.26442 | 37003 ft | 494 kts | 85° |
| 2026-04-25 20:02 | 42.06148 | -83.17234 | 37003 ft | 494 kts | 85° |
| 2026-04-25 20:02 | 42.06675 | -83.08022 | 37007 ft | 494 kts | 89° |
| 2026-04-25 20:03 | 42.07141 | -82.98781 | 37003 ft | 494 kts | 87° |
| 2026-04-25 20:03 | 42.07549 | -82.89558 | 37004 ft | 494 kts | 87° |
| 2026-04-25 20:04 | 42.07976 | -82.80314 | 37002 ft | 494 kts | 88° |
| 2026-04-25 20:04 | 42.08398 | -82.71086 | 37001 ft | 495 kts | 88° |
| 2026-04-25 20:05 | 42.08806 | -82.61834 | 37001 ft | 494 kts | 88° |
| 2026-04-25 20:05 | 42.09209 | -82.52586 | 37004 ft | 495 kts | 88° |
| 2026-04-25 20:06 | 42.09603 | -82.43387 | 37004 ft | 495 kts | 88° |
| 2026-04-25 20:06 | 42.09993 | -82.34123 | 37002 ft | 498 kts | 89° |
| 2026-04-25 20:07 | 42.10375 | -82.24830 | 37000 ft | 496 kts | 89° |
| 2026-04-25 20:07 | 42.10749 | -82.15541 | 37001 ft | 497 kts | 89° |
| 2026-04-25 20:08 | 42.11117 | -82.06252 | 37005 ft | 497 kts | 89° |
| 2026-04-25 20:08 | 42.11477 | -81.96943 | 37004 ft | 497 kts | 89° |
| 2026-04-25 20:09 | 42.11828 | -81.87700 | 37006 ft | 497 kts | 89° |
| 2026-04-25 20:09 | 42.12173 | -81.78423 | 37010 ft | 495 kts | 89° |
| 2026-04-25 20:10 | 42.12508 | -81.69149 | 37010 ft | 496 kts | 89° |
| 2026-04-25 20:10 | 42.12841 | -81.59848 | 37009 ft | 499 kts | 89° |
| 2026-04-25 20:11 | 42.13163 | -81.50500 | 37012 ft | 498 kts | 89° |
| 2026-04-25 20:11 | 42.13478 | -81.41184 | 37009 ft | 499 kts | 89° |
| 2026-04-25 20:12 | 42.13788 | -81.31849 | 37010 ft | 498 kts | 89° |
| 2026-04-25 20:12 | 42.14040 | -81.24082 | 37004 ft | 501 kts | 90° |
| 2026-04-25 20:13 | 42.14382 | -81.13183 | 37012 ft | 499 kts | 90° |
| 2026-04-25 20:13 | 42.14668 | -81.03819 | 37017 ft | 501 kts | 90° |
| 2026-04-25 20:14 | 42.14948 | -80.94452 | 37011 ft | 500 kts | 90° |
| 2026-04-25 20:14 | 42.15220 | -80.85060 | 37006 ft | 504 kts | 90° |
| 2026-04-25 20:15 | 42.15485 | -80.75661 | 37003 ft | 502 kts | 90° |
| 2026-04-25 20:15 | 42.15742 | -80.66251 | 37003 ft | 503 kts | 90° |
| 2026-04-25 20:16 | 42.15992 | -80.56836 | 37000 ft | 502 kts | 90° |
| 2026-04-25 20:16 | 42.16235 | -80.47400 | 36997 ft | 506 kts | 91° |
| 2026-04-25 20:17 | 42.16470 | -80.37936 | 37001 ft | 504 kts | 91° |
| 2026-04-25 20:17 | 42.16698 | -80.28465 | 37003 ft | 505 kts | 91° |
| 2026-04-25 20:18 | 42.16917 | -80.19063 | 37004 ft | 504 kts | 91° |
| 2026-04-25 20:18 | 42.17129 | -80.09580 | 36999 ft | 507 kts | 91° |
| 2026-04-25 20:19 | 42.17334 | -80.00105 | 36999 ft | 506 kts | 91° |
| 2026-04-25 20:19 | 42.17531 | -79.90622 | 37006 ft | 504 kts | 91° |
| 2026-04-25 20:20 | 42.17719 | -79.81155 | 36991 ft | 506 kts | 91° |
| 2026-04-25 20:20 | 42.17901 | -79.71684 | 36969 ft | 505 kts | 91° |
| 2026-04-25 20:21 | 42.18074 | -79.62207 | 36965 ft | 506 kts | 91° |
| 2026-04-25 20:21 | 42.18239 | -79.52785 | 36949 ft | 505 kts | 91° |
| 2026-04-25 20:22 | 42.18345 | -79.46446 | 36944 ft | 505 kts | 91° |
| 2026-04-25 20:22 | 42.18547 | -79.33823 | 36936 ft | 506 kts | 91° |
| 2026-04-25 20:23 | 42.18689 | -79.24325 | 36938 ft | 505 kts | 91° |
| 2026-04-25 20:23 | 42.18803 | -79.14854 | 36945 ft | 505 kts | 93° |
| 2026-04-25 20:24 | 42.19472 | -79.05503 | 36886 ft | 510 kts | 72° |
| 2026-04-25 20:24 | 42.22339 | -78.96735 | 36923 ft | 512 kts | 63° |
| 2026-04-25 20:25 | 42.25390 | -78.88063 | 36927 ft | 511 kts | 67° |
| 2026-04-25 20:25 | 42.27694 | -78.78977 | 36909 ft | 512 kts | 70° |
| 2026-04-25 20:26 | 42.30131 | -78.69960 | 36916 ft | 511 kts | 72° |
| 2026-04-25 20:26 | 42.32539 | -78.60918 | 36912 ft | 511 kts | 70° |
| 2026-04-25 20:27 | 42.34909 | -78.51864 | 36912 ft | 511 kts | 71° |
| 2026-04-25 20:27 | 42.37291 | -78.42807 | 36913 ft | 511 kts | 71° |
| 2026-04-25 20:28 | 42.39665 | -78.33738 | 36914 ft | 511 kts | 71° |
| 2026-04-25 20:28 | 42.42012 | -78.24721 | 36930 ft | 510 kts | 71° |
| 2026-04-25 20:29 | 42.44359 | -78.15685 | 36924 ft | 508 kts | 71° |
| 2026-04-25 20:29 | 42.46700 | -78.06631 | 36913 ft | 509 kts | 71° |
| 2026-04-25 20:30 | 42.49034 | -77.97573 | 36933 ft | 508 kts | 71° |
| 2026-04-25 20:30 | 42.51346 | -77.88566 | 36930 ft | 509 kts | 71° |
| 2026-04-25 20:31 | 42.53669 | -77.79479 | 36947 ft | 509 kts | 71° |
| 2026-04-25 20:31 | 42.55984 | -77.70391 | 36955 ft | 509 kts | 71° |
| 2026-04-25 20:32 | 42.58285 | -77.61321 | 36944 ft | 506 kts | 71° |
| 2026-04-25 20:32 | 42.60577 | -77.52257 | 36945 ft | 509 kts | 71° |
| 2026-04-25 20:33 | 42.62861 | -77.43180 | 36950 ft | 507 kts | 71° |
| 2026-04-25 20:33 | 42.64372 | -77.37164 | 36975 ft | 508 kts | 71° |
| 2026-04-25 20:34 | 42.67396 | -77.25068 | 36982 ft | 507 kts | 71° |
| 2026-04-25 20:34 | 42.69659 | -77.15974 | 36980 ft | 508 kts | 71° |
| 2026-04-25 20:35 | 42.71915 | -77.06877 | 36987 ft | 506 kts | 71° |